Time;durP1;ratioP1;P1;durP2;ratioP2;P2;SDS_P1;SDS_P2;PMS_P1;PMS_P2;Temp;Humidity;BMP_temperature;BMP_pressure;BME280_temperature;BME280_humidity;BME280_pressure;Samples;Min_cycle;Max_cycle;Signal;HPM_P1;HPM_P2
2022/09/24 00:01:15;;;;;;;21.48;18.17;;;13.90;99.90;;;;;;4859074;29;37687;-77
2022/09/24 00:03:46;;;;;;;22.77;17.30;;;13.80;99.90;;;;;;4871170;29;36450;-77
2022/09/24 00:06:17;;;;;;;27.05;21.40;;;13.80;99.90;;;;;;4865559;29;38749;-77
2022/09/24 00:08:49;;;;;;;25.55;20.27;;;13.90;99.90;;;;;;4873956;29;39044;-77
2022/09/24 00:11:19;;;;;;;22.03;17.63;;;13.80;99.90;;;;;;4875998;29;39251;-77
2022/09/24 00:13:46;;;;;;;21.33;17.27;;;13.80;99.90;;;;;;4863956;29;36465;-77
2022/09/24 00:16:15;;;;;;;26.58;18.73;;;13.80;99.90;;;;;;4879529;29;39889;-77
2022/09/24 00:18:41;;;;;;;19.20;16.63;;;13.90;99.90;;;;;;4879357;29;38526;-77
2022/09/24 00:21:31;;;;;;;19.08;15.82;;;13.80;99.90;;;;;;4879673;29;38355;-77
2022/09/24 00:24:00;;;;;;;19.42;16.35;;;13.80;99.90;;;;;;4859859;29;36089;-77
2022/09/24 00:29:14;;;;;;;17.15;15.32;;;13.80;99.90;;;;;;4872784;29;39179;-77
2022/09/24 00:31:40;;;;;;;18.30;15.40;;;13.80;99.90;;;;;;4854273;29;37399;-77
2022/09/24 00:34:07;;;;;;;18.25;15.73;;;13.80;99.90;;;;;;4849998;29;36175;-77
2022/09/24 00:36:33;;;;;;;19.35;16.25;;;13.80;99.90;;;;;;4861945;29;38717;-77
2022/09/24 00:38:59;;;;;;;17.98;15.82;;;13.70;99.90;;;;;;4858286;29;39003;-77
2022/09/24 00:41:32;;;;;;;21.55;17.67;;;13.70;99.90;;;;;;4854591;29;38380;-77
2022/09/24 00:43:58;;;;;;;;;;;13.70;99.90;;;;;;4859447;29;36483;-77
2022/09/24 00:46:35;;;;;;;25.60;18.50;;;13.70;99.90;;;;;;4874896;29;38065;-77
2022/09/24 00:49:16;;;;;;;28.55;20.90;;;13.80;99.90;;;;;;4872201;29;37301;-77
2022/09/24 00:51:46;;;;;;;28.27;22.27;;;13.80;99.90;;;;;;4856173;29;47092;-77
2022/09/24 00:54:18;;;;;;;24.60;20.23;;;13.80;99.90;;;;;;4857204;29;36275;-77
2022/09/24 00:56:47;;;;;;;22.95;20.08;;;13.80;99.90;;;;;;4866514;29;36456;-77
2022/09/24 00:59:16;;;;;;;21.05;17.98;;;13.80;99.90;;;;;;4866087;29;41228;-77
2022/09/24 01:01:45;;;;;;;26.95;20.77;;;13.90;99.90;;;;;;5264774;23;38344;-79
2022/09/24 01:04:13;;;;;;;29.92;20.98;;;13.90;99.90;;;;;;4883315;29;36381;-79
2022/09/24 01:06:39;;;;;;;27.02;21.92;;;13.90;99.90;;;;;;4890901;29;37738;-77
2022/09/24 01:09:06;;;;;;;25.27;21.85;;;13.90;99.90;;;;;;4909370;29;39425;-77
2022/09/24 01:11:59;;;;;;;30.27;23.48;;;13.80;99.90;;;;;;4904359;29;38029;-78
2022/09/24 01:14:25;;;;;;;29.27;23.05;;;13.80;99.90;;;;;;4883746;29;36591;-77
2022/09/24 01:17:03;;;;;;;32.00;24.70;;;13.80;99.90;;;;;;4895657;29;38037;-77
2022/09/24 01:20:03;;;;;;;30.45;25.40;;;13.70;99.90;;;;;;4910142;29;48871;-77
2022/09/24 01:23:02;;;;;;;31.90;24.75;;;13.70;99.90;;;;;;4890554;29;46561;-78
2022/09/24 01:26:04;;;;;;;29.30;23.30;;;13.70;99.90;;;;;;4884782;29;48501;-77
2022/09/24 01:28:53;;;;;;;30.17;21.80;;;13.70;99.90;;;;;;4891445;29;38999;-76
2022/09/24 01:31:37;;;;;;;27.80;22.70;;;13.70;99.90;;;;;;4887065;29;37812;-77
2022/09/24 01:34:05;;;;;;;26.63;22.17;;;13.70;99.90;;;;;;4899663;28;39113;-79
2022/09/24 01:36:33;;;;;;;26.95;22.88;;;13.60;99.90;;;;;;4884341;29;36140;-77
2022/09/24 01:39:02;;;;;;;30.60;24.52;;;13.70;99.90;;;;;;4906491;29;38579;-76
2022/09/24 01:41:29;;;;;;;29.38;23.90;;;13.60;99.90;;;;;;4890482;29;47913;-77
2022/09/24 01:43:59;;;;;;;27.20;22.60;;;13.70;99.90;;;;;;4902211;29;37731;-76
2022/09/24 01:46:25;;;;;;;31.10;25.27;;;13.60;99.90;;;;;;4887184;29;36299;-76
2022/09/24 01:48:55;;;;;;;33.08;25.70;;;13.60;99.90;;;;;;4892093;29;38441;-76
2022/09/24 01:51:27;;;;;;;29.60;24.52;;;13.60;99.90;;;;;;4897766;29;37874;-76
2022/09/24 01:54:01;;;;;;;37.40;28.27;;;13.60;99.90;;;;;;4913156;29;38718;-77
2022/09/24 01:56:31;;;;;;;34.20;26.80;;;13.70;99.90;;;;;;4914651;29;36748;-77
2022/09/24 01:59:04;;;;;;;31.70;25.77;;;13.60;99.90;;;;;;4912718;29;38745;-77
2022/09/24 02:01:35;;;;;;;35.75;25.67;;;13.60;99.90;;;;;;4917699;29;40115;-77
2022/09/24 02:04:15;;;;;;;29.48;23.55;;;13.60;99.90;;;;;;4916111;29;39160;-76
2022/09/24 02:07:00;;;;;;;32.20;25.00;;;13.60;99.90;;;;;;4900873;29;48845;-77
2022/09/24 02:09:34;;;;;;;28.38;23.92;;;13.70;99.90;;;;;;4907261;29;38796;-77
2022/09/24 02:12:28;;;;;;;28.58;24.00;;;13.60;99.90;;;;;;4890226;29;39226;-77
2022/09/24 02:15:11;;;;;;;38.22;28.08;;;13.60;99.90;;;;;;4883564;29;47092;-76
2022/09/24 02:17:41;;;;;;;32.83;25.52;;;13.70;99.90;;;;;;4883572;29;47037;-77
2022/09/24 02:20:12;;;;;;;32.88;25.45;;;13.70;99.90;;;;;;4878843;29;39057;-76
2022/09/24 02:22:40;;;;;;;30.25;24.88;;;13.70;99.90;;;;;;4878885;29;37870;-77
2022/09/24 02:25:09;;;;;;;34.63;25.00;;;13.70;99.90;;;;;;4888812;29;38831;-77
2022/09/24 02:27:35;;;;;;;34.88;25.10;;;13.70;99.90;;;;;;4882255;29;36312;-78
2022/09/24 02:30:01;;;;;;;30.08;24.08;;;13.70;99.90;;;;;;4885906;29;38639;-79
2022/09/24 02:32:31;;;;;;;30.77;23.73;;;13.70;99.90;;;;;;4900944;29;39471;-78
2022/09/24 02:35:00;;;;;;;31.15;24.08;;;13.70;99.90;;;;;;4899805;29;39539;-78
2022/09/24 02:37:27;;;;;;;32.33;24.30;;;13.70;99.90;;;;;;4888587;29;37685;-77
2022/09/24 02:39:53;;;;;;;37.33;26.48;;;13.70;99.90;;;;;;4884210;29;37627;-77
2022/09/24 02:42:20;;;;;;;40.67;27.60;;;13.70;99.90;;;;;;4905745;29;37728;-77
2022/09/24 02:44:46;;;;;;;39.33;27.35;;;13.70;99.90;;;;;;4887011;29;38806;-77
2022/09/24 02:47:13;;;;;;;36.08;26.65;;;13.70;99.90;;;;;;4888841;29;35864;-77
2022/09/24 02:49:39;;;;;;;29.67;23.90;;;13.70;99.90;;;;;;4885492;29;38199;-76
2022/09/24 02:52:05;;;;;;;36.00;26.83;;;13.70;99.90;;;;;;4900562;29;39209;-77
2022/09/24 02:54:31;;;;;;;37.65;26.77;;;13.80;99.90;;;;;;4892036;29;37588;-77
2022/09/24 02:56:57;;;;;;;29.83;24.77;;;13.80;99.90;;;;;;4906983;29;38413;-77
2022/09/24 02:59:23;;;;;;;37.10;27.83;;;13.80;99.90;;;;;;4886457;29;38630;-77
2022/09/24 03:01:49;;;;;;;36.53;28.92;;;13.80;99.90;;;;;;4887153;29;37771;-77
2022/09/24 03:04:16;;;;;;;34.40;27.25;;;13.80;99.90;;;;;;4898306;29;38392;-77
2022/09/24 03:06:42;;;;;;;29.38;26.23;;;13.80;99.90;;;;;;4886158;29;36518;-77
2022/09/24 03:09:11;;;;;;;36.50;28.30;;;13.80;99.90;;;;;;4894107;29;37836;-77
2022/09/24 03:11:38;;;;;;;49.67;33.15;;;13.80;99.90;;;;;;4883140;29;38066;-77
2022/09/24 03:14:04;;;;;;;47.38;32.67;;;13.90;99.90;;;;;;4878079;29;37379;-80
2022/09/24 03:16:30;;;;;;;37.08;28.23;;;13.90;99.90;;;;;;4896738;29;37787;-78
2022/09/24 03:18:56;;;;;;;35.35;28.65;;;13.90;99.90;;;;;;4890514;29;39843;-79
2022/09/24 03:21:22;;;;;;;33.97;27.92;;;13.90;99.90;;;;;;4883515;29;38325;-76
2022/09/24 03:23:49;;;;;;;33.70;27.70;;;13.90;99.90;;;;;;4904375;29;38737;-77
2022/09/24 03:26:16;;;;;;;48.97;35.38;;;13.90;99.90;;;;;;4893929;29;36280;-77
2022/09/24 03:28:43;;;;;;;39.90;30.00;;;13.90;99.90;;;;;;4891726;29;37972;-77
2022/09/24 03:31:09;;;;;;;33.00;28.13;;;13.90;99.90;;;;;;4907785;29;39751;-78
2022/09/24 03:33:38;;;;;;;32.95;27.10;;;13.90;99.90;;;;;;4881729;29;36057;-77
2022/09/24 03:36:23;;;;;;;42.83;32.45;;;13.90;99.90;;;;;;4903762;29;35256;-79
2022/09/24 03:38:53;;;;;;;36.90;29.60;;;14.00;99.90;;;;;;4901198;29;46681;-77
2022/09/24 03:41:19;;;;;;;36.50;29.33;;;14.00;99.90;;;;;;4889945;29;37983;-78
2022/09/24 03:43:45;;;;;;;40.17;30.48;;;14.00;99.90;;;;;;4887078;29;37274;-77
2022/09/24 03:46:12;;;;;;;39.45;31.55;;;14.00;99.90;;;;;;4903055;29;37661;-79
2022/09/24 03:48:39;;;;;;;42.10;33.10;;;14.00;99.90;;;;;;4889868;29;37712;-78
2022/09/24 03:51:09;;;;;;;42.33;32.03;;;14.00;99.90;;;;;;4905884;29;39332;-77
2022/09/24 03:53:36;;;;;;;53.58;38.33;;;14.00;99.90;;;;;;4892785;29;37115;-78
2022/09/24 03:56:04;;;;;;;41.47;33.58;;;14.00;99.90;;;;;;4909209;29;36776;-77
2022/09/24 03:58:34;;;;;;;40.05;31.70;;;14.00;99.90;;;;;;4902968;29;37066;-78
2022/09/24 04:01:01;;;;;;;56.58;39.60;;;14.00;99.90;;;;;;4905350;29;38938;-78
2022/09/24 04:03:27;;;;;;;38.63;32.10;;;14.00;99.90;;;;;;4898091;29;38240;-78
2022/09/24 04:05:53;;;;;;;51.35;35.88;;;14.10;99.90;;;;;;4882827;29;36036;-78
2022/09/24 04:08:20;;;;;;;42.80;33.15;;;14.20;99.90;;;;;;4883156;29;37451;-79
2022/09/24 04:10:50;;;;;;;36.70;29.50;;;14.10;99.90;;;;;;4884574;29;35736;-78
2022/09/24 04:13:18;;;;;;;59.88;41.80;;;14.10;99.90;;;;;;4899285;29;38549;-78
2022/09/24 04:15:44;;;;;;;42.80;33.30;;;14.10;99.90;;;;;;4885105;29;37383;-79
2022/09/24 04:18:10;;;;;;;41.45;32.22;;;14.20;99.90;;;;;;4896510;29;38436;-78
2022/09/24 04:20:37;;;;;;;60.85;38.80;;;14.20;99.90;;;;;;4886398;29;38737;-78
2022/09/24 04:23:03;;;;;;;51.00;35.33;;;14.20;99.90;;;;;;4898085;29;39185;-78
2022/09/24 04:25:31;;;;;;;43.05;34.70;;;14.20;99.90;;;;;;4889807;29;36522;-78
2022/09/24 04:28:02;;;;;;;49.40;37.38;;;14.20;99.90;;;;;;4906708;29;39640;-79
2022/09/24 04:30:30;;;;;;;53.85;37.60;;;14.20;99.90;;;;;;4886356;29;47312;-80
2022/09/24 04:32:59;;;;;;;48.00;35.17;;;14.20;99.90;;;;;;4912690;29;39677;-81
2022/09/24 04:35:26;;;;;;;60.25;41.65;;;14.30;99.90;;;;;;4912880;29;36754;-81
2022/09/24 04:37:52;;;;;;;62.33;40.05;;;14.30;99.90;;;;;;4888652;29;37404;-78
2022/09/24 04:40:18;;;;;;;54.70;38.40;;;14.30;99.90;;;;;;4892349;29;37663;-78
2022/09/24 04:42:47;;;;;;;43.72;33.83;;;14.30;99.90;;;;;;4906665;29;38348;-78
2022/09/24 04:45:19;;;;;;;42.70;33.53;;;14.30;99.90;;;;;;4886488;29;36259;-78
2022/09/24 04:47:54;;;;;;;38.65;30.90;;;14.30;99.90;;;;;;4908145;29;37367;-78
2022/09/24 04:50:21;;;;;;;59.70;39.55;;;14.30;99.90;;;;;;4889508;29;37698;-79
2022/09/24 04:52:47;;;;;;;48.75;34.72;;;14.40;99.90;;;;;;4889546;29;37542;-80
2022/09/24 04:55:13;;;;;;;40.78;31.77;;;14.30;99.90;;;;;;4899005;29;38530;-79
2022/09/24 04:57:40;;;;;;;49.95;35.30;;;14.40;99.90;;;;;;4884052;29;38659;-79
2022/09/24 05:00:10;;;;;;;40.75;32.83;;;14.40;99.90;;;;;;4903062;29;39245;-79
2022/09/24 05:02:36;;;;;;;43.55;32.90;;;14.40;99.90;;;;;;4886756;29;39529;-79
2022/09/24 05:05:02;;;;;;;43.05;32.72;;;14.40;99.90;;;;;;4888163;29;37156;-81
2022/09/24 05:07:28;;;;;;;41.15;31.45;;;14.50;99.90;;;;;;4883851;29;37521;-80
2022/09/24 05:09:54;;;;;;;41.67;31.48;;;14.50;99.90;;;;;;4885682;29;38953;-80
2022/09/24 05:12:21;;;;;;;41.72;32.13;;;14.60;99.90;;;;;;4901397;29;38697;-80
2022/09/24 05:14:47;;;;;;;50.78;35.85;;;14.60;99.90;;;;;;4905160;29;36096;-80
2022/09/24 05:17:14;;;;;;;47.55;34.45;;;14.60;99.90;;;;;;4891224;29;38515;-80
2022/09/24 05:19:40;;;;;;;57.88;39.45;;;14.60;99.90;;;;;;4897127;29;39086;-80
2022/09/24 05:22:06;;;;;;;55.03;37.75;;;14.60;99.90;;;;;;4907837;29;38763;-80
2022/09/24 05:24:33;;;;;;;66.10;40.88;;;14.50;99.90;;;;;;4925437;29;20037;-79
2022/09/24 05:27:09;;;;;;;68.70;41.90;;;14.50;99.90;;;;;;4910304;29;37668;-79
2022/09/24 05:29:39;;;;;;;64.80;41.30;;;14.50;99.90;;;;;;4894580;29;48222;-79
2022/09/24 05:32:08;;;;;;;56.70;38.40;;;14.50;99.90;;;;;;4900576;29;39558;-79
2022/09/24 05:34:34;;;;;;;62.97;39.58;;;14.50;99.90;;;;;;4882390;29;37925;-79
2022/09/24 05:37:01;;;;;;;72.03;42.67;;;14.50;99.90;;;;;;4904867;29;39833;-79
2022/09/24 05:39:27;;;;;;;74.03;42.22;;;14.60;99.90;;;;;;4886194;29;37520;-79
2022/09/24 05:41:55;;;;;;;59.92;37.13;;;14.60;99.90;;;;;;4904054;29;38714;-80
2022/09/24 05:44:21;;;;;;;64.82;39.60;;;14.50;99.90;;;;;;4888858;29;36383;-79
2022/09/24 05:46:49;;;;;;;72.93;42.17;;;14.60;99.90;;;;;;4890132;29;37463;-79
2022/09/24 05:49:15;;;;;;;54.00;35.42;;;14.60;99.90;;;;;;4904317;29;39404;-79
2022/09/24 05:51:42;;;;;;;76.03;40.90;;;14.60;99.90;;;;;;4884741;29;37425;-79
2022/09/24 05:54:09;;;;;;;57.35;33.50;;;14.60;99.90;;;;;;4897718;29;36477;-79
2022/09/24 05:56:35;;;;;;;46.13;28.58;;;14.60;99.90;;;;;;4885350;29;39465;-79
2022/09/24 05:59:01;;;;;;;40.20;26.23;;;14.60;99.90;;;;;;4898337;29;38854;-79
2022/09/24 06:01:31;;;;;;;48.50;28.00;;;14.50;99.90;;;;;;4901881;29;39430;-79
2022/09/24 06:03:57;;;;;;;38.65;24.13;;;14.50;99.90;;;;;;4905409;29;38473;-79
2022/09/24 06:06:27;;;;;;;42.00;24.75;;;14.50;99.90;;;;;;4888556;29;39427;-80
2022/09/24 06:08:53;;;;;;;45.70;27.23;;;14.50;99.90;;;;;;4880734;29;39055;-79
2022/09/24 06:11:23;;;;;;;36.95;24.58;;;14.50;99.90;;;;;;4877375;29;38761;-80
2022/09/24 06:13:50;;;;;;;35.65;24.65;;;14.50;99.90;;;;;;4904923;29;37336;-80
2022/09/24 06:16:17;;;;;;;41.88;26.55;;;14.50;99.90;;;;;;4896345;29;40014;-80
2022/09/24 06:18:43;;;;;;;34.97;24.55;;;14.50;99.90;;;;;;4888576;29;37524;-81
2022/09/24 06:21:12;;;;;;;32.80;22.73;;;14.50;99.90;;;;;;4888337;29;37671;-81
2022/09/24 06:23:39;;;;;;;35.80;23.35;;;14.50;99.90;;;;;;4905321;29;38766;-80
2022/09/24 06:26:08;;;;;;;31.20;21.55;;;14.50;99.90;;;;;;4887450;29;38346;-80
2022/09/24 06:28:36;;;;;;;28.83;19.05;;;14.50;99.90;;;;;;4905128;29;38498;-80
2022/09/24 06:31:03;;;;;;;26.52;17.88;;;14.50;99.90;;;;;;4906361;29;39256;-79
2022/09/24 06:33:29;;;;;;;29.80;17.63;;;14.50;99.90;;;;;;4882102;29;37718;-79
2022/09/24 06:36:00;;;;;;;21.50;13.63;;;14.50;99.90;;;;;;4899743;29;38682;-80
2022/09/24 06:38:26;;;;;;;23.65;14.88;;;14.50;99.90;;;;;;4899575;29;37889;-79
2022/09/24 06:40:56;;;;;;;20.27;14.00;;;14.50;99.90;;;;;;4884003;29;38420;-80
2022/09/24 06:43:22;;;;;;;20.48;11.57;;;14.50;99.90;;;;;;4901068;29;37491;-81
2022/09/24 06:45:49;;;;;;;15.60;9.40;;;14.50;99.90;;;;;;4887155;29;39574;-80
2022/09/24 06:48:16;;;;;;;14.38;8.20;;;14.50;99.90;;;;;;4904093;29;38929;-79
2022/09/24 06:50:44;;;;;;;12.68;6.43;;;14.40;99.90;;;;;;4881501;29;37351;-79
2022/09/24 06:53:11;;;;;;;10.98;5.72;;;14.40;99.90;;;;;;4893073;29;37306;-80
2022/09/24 06:55:37;;;;;;;6.95;4.53;;;14.50;99.90;;;;;;4899522;29;38926;-81
2022/09/24 06:58:06;;;;;;;9.68;4.45;;;14.40;99.90;;;;;;4875596;29;37775;-81
2022/09/24 07:00:33;;;;;;;7.45;3.63;;;14.50;99.90;;;;;;4886476;29;38816;-81
2022/09/24 07:02:59;;;;;;;7.80;2.80;;;14.50;99.90;;;;;;4896621;29;36359;-82
2022/09/24 07:05:26;;;;;;;9.10;2.88;;;14.50;99.90;;;;;;4896530;29;38884;-80
2022/09/24 07:07:52;;;;;;;6.07;2.97;;;14.50;99.90;;;;;;4880960;29;39975;-82
2022/09/24 07:10:18;;;;;;;10.55;2.78;;;14.50;99.90;;;;;;4886810;29;37514;-80
2022/09/24 07:12:44;;;;;;;8.77;3.38;;;14.60;99.90;;;;;;4880023;29;36965;-81
2022/09/24 07:15:11;;;;;;;6.38;3.40;;;14.60;99.90;;;;;;4884112;29;37622;-81
2022/09/24 07:17:37;;;;;;;10.15;4.78;;;14.60;99.90;;;;;;4901119;29;39777;-81
2022/09/24 07:20:04;;;;;;;14.75;5.88;;;14.60;99.90;;;;;;4885900;29;38499;-82
2022/09/24 07:22:30;;;;;;;10.15;5.30;;;14.70;99.90;;;;;;4898459;29;47864;-81
2022/09/24 07:24:56;;;;;;;8.43;4.20;;;14.70;99.90;;;;;;4885780;29;37467;-80
2022/09/24 07:27:22;;;;;;;10.18;4.50;;;14.60;99.90;;;;;;4881636;29;39054;-80
2022/09/24 07:29:48;;;;;;;16.05;4.53;;;14.70;99.90;;;;;;4905524;29;39127;-80
2022/09/24 07:32:16;;;;;;;12.25;4.65;;;14.70;99.90;;;;;;4896060;29;36603;-81
2022/09/24 07:34:42;;;;;;;11.27;3.60;;;14.70;99.90;;;;;;4893553;29;39046;-80
2022/09/24 07:37:08;;;;;;;13.02;4.20;;;14.60;99.90;;;;;;4906785;29;39746;-80
2022/09/24 07:39:34;;;;;;;8.85;3.60;;;14.80;99.90;;;;;;4922456;29;39508;-80
2022/09/24 07:42:01;;;;;;;12.85;4.35;;;14.70;99.90;;;;;;4904890;29;36889;-80
2022/09/24 07:44:28;;;;;;;11.77;2.92;;;14.70;99.90;;;;;;4883959;29;38305;-80
2022/09/24 07:46:54;;;;;;;15.73;3.17;;;14.80;99.90;;;;;;4907676;29;39021;-81
2022/09/24 07:49:21;;;;;;;11.80;2.65;;;14.70;99.90;;;;;;4891864;29;37718;-81
2022/09/24 07:51:47;;;;;;;11.23;2.95;;;14.70;99.90;;;;;;4894327;29;36667;-80
2022/09/24 07:54:13;;;;;;;12.00;2.33;;;14.60;99.90;;;;;;4890209;29;38514;-82
2022/09/24 07:56:39;;;;;;;14.77;2.15;;;14.60;99.90;;;;;;4908241;29;38565;-84
2022/09/24 07:59:06;;;;;;;10.98;2.78;;;14.60;99.90;;;;;;4894058;29;37384;-80
2022/09/24 08:01:33;;;;;;;11.77;2.78;;;14.50;99.90;;;;;;4908059;29;47476;-80
2022/09/24 08:04:00;;;;;;;14.50;3.33;;;14.40;99.90;;;;;;4906645;29;38942;-80
2022/09/24 08:06:27;;;;;;;16.33;3.20;;;14.40;99.90;;;;;;4903409;29;39127;-80
2022/09/24 08:08:54;;;;;;;10.82;3.10;;;14.40;99.90;;;;;;4888579;29;38254;-79
2022/09/24 08:11:21;;;;;;;15.02;3.13;;;14.40;99.90;;;;;;4883341;29;36192;-79
2022/09/24 08:13:47;;;;;;;17.90;3.63;;;14.40;99.90;;;;;;4896063;29;38339;-80
2022/09/24 08:16:15;;;;;;;15.88;3.67;;;14.40;99.90;;;;;;4869307;29;39594;-80
2022/09/24 08:18:42;;;;;;;15.70;2.55;;;14.40;99.90;;;;;;4905312;29;38330;-79
2022/09/24 08:21:10;;;;;;;17.35;3.35;;;14.50;99.90;;;;;;4888863;29;37053;-81
2022/09/24 08:23:38;;;;;;;16.50;3.22;;;14.60;99.90;;;;;;4900360;29;39857;-79
2022/09/24 08:26:05;;;;;;;10.30;3.03;;;14.60;99.90;;;;;;4890924;29;37699;-79
2022/09/24 08:28:31;;;;;;;18.60;3.40;;;14.60;99.90;;;;;;4891770;29;47304;-79
2022/09/24 08:30:59;;;;;;;16.90;3.15;;;14.60;99.90;;;;;;4904505;29;36927;-78
2022/09/24 08:33:26;;;;;;;21.10;3.85;;;14.60;99.90;;;;;;4884588;29;37334;-77
2022/09/24 08:35:53;;;;;;;18.67;3.85;;;14.60;99.90;;;;;;4891755;29;38918;-77
2022/09/24 08:38:22;;;;;;;15.07;2.88;;;14.60;99.90;;;;;;4889479;29;39005;-78
2022/09/24 08:41:12;;;;;;;12.40;3.15;;;14.60;99.90;;;;;;4897615;29;38193;-79
2022/09/24 08:43:44;;;;;;;19.30;2.90;;;14.40;99.90;;;;;;4890473;29;47424;-79
2022/09/24 08:49:09;;;;;;;19.23;3.00;;;14.50;99.90;;;;;;4912561;29;40676;-78
2022/09/24 08:51:44;;;;;;;15.27;2.83;;;14.50;99.90;;;;;;4898500;29;35949;-79
2022/09/24 08:54:13;;;;;;;16.30;3.53;;;14.50;99.90;;;;;;4896614;29;39029;-79
2022/09/24 08:56:44;;;;;;;14.80;3.17;;;14.50;99.90;;;;;;4903368;29;37541;-78
2022/09/24 08:59:29;;;;;;;14.07;3.50;;;14.60;99.90;;;;;;4899730;29;38180;-79
2022/09/24 09:02:18;;;;;;;10.65;2.65;;;14.60;99.90;;;;;;4898841;29;37994;-79
2022/09/24 09:05:01;;;;;;;11.00;2.67;;;14.70;99.90;;;;;;4894888;29;49057;-78
2022/09/24 09:07:43;;;;;;;11.63;3.00;;;14.70;99.90;;;;;;4867902;29;37982;-80
2022/09/24 09:10:18;;;;;;;12.40;2.53;;;14.80;99.90;;;;;;4903766;29;39830;-80
2022/09/24 09:12:53;;;;;;;13.15;2.42;;;14.80;99.90;;;;;;4883306;29;36126;-81
2022/09/24 09:15:29;;;;;;;10.50;2.30;;;14.70;99.90;;;;;;4901001;29;37942;-80
2022/09/24 09:18:03;;;;;;;12.82;2.55;;;14.80;99.90;;;;;;4901484;29;40068;-81
2022/09/24 09:20:34;;;;;;;10.52;2.50;;;14.80;99.90;;;;;;4878773;29;47364;-80
2022/09/24 09:23:12;;;;;;;9.52;2.13;;;14.80;99.90;;;;;;4899281;29;37196;-80
2022/09/24 09:25:44;;;;;;;13.68;2.63;;;14.90;99.90;;;;;;4901388;29;48258;-81
2022/09/24 09:28:15;;;;;;;15.75;2.95;;;14.90;99.90;;;;;;4879796;29;37634;-80
2022/09/24 09:30:59;;;;;;;14.37;2.63;;;15.00;99.90;;;;;;4880295;29;38627;-80
2022/09/24 09:33:38;;;;;;;12.73;1.95;;;15.10;99.90;;;;;;4900594;29;37024;-80
2022/09/24 09:36:31;;;;;;;14.18;2.38;;;15.10;99.90;;;;;;4860715;29;37684;-81
2022/09/24 09:39:16;;;;;;;7.10;1.40;;;15.00;99.90;;;;;;4891969;29;47205;-79
2022/09/24 09:42:14;;;;;;;15.32;3.28;;;15.10;99.90;;;;;;4886498;29;47155;-83
2022/09/24 09:44:42;;;;;;;12.80;1.83;;;15.20;99.90;;;;;;4894028;29;48856;-81
2022/09/24 09:47:40;;;;;;;17.10;2.00;;;15.20;99.90;;;;;;4886737;29;37454;-81
2022/09/24 09:50:24;;;;;;;12.15;2.10;;;15.20;99.90;;;;;;4883322;29;37568;-80
2022/09/24 09:52:50;;;;;;;11.20;1.60;;;15.20;99.90;;;;;;4894737;29;39667;-80
2022/09/24 09:55:30;;;;;;;10.23;1.80;;;15.20;99.90;;;;;;4893129;28;37620;-80
2022/09/24 09:58:14;;;;;;;14.73;2.22;;;15.40;99.90;;;;;;4875064;29;38785;-79
2022/09/24 10:00:41;;;;;;;8.40;1.83;;;15.40;99.90;;;;;;4877176;29;46454;-80
2022/09/24 10:03:32;;;;;;;9.20;1.58;;;15.40;99.90;;;;;;4891340;29;38670;-80
2022/09/24 10:06:00;;;;;;;11.00;1.90;;;15.40;99.90;;;;;;4900905;29;35995;-80
2022/09/24 10:08:27;;;;;;;10.63;1.90;;;15.40;99.90;;;;;;4886628;29;37626;-82
2022/09/24 10:10:58;;;;;;;12.40;2.05;;;15.40;99.90;;;;;;4889504;29;38319;-81
2022/09/24 10:13:25;;;;;;;8.75;2.45;;;15.30;99.90;;;;;;4885807;29;37465;-80
2022/09/24 10:15:55;;;;;;;8.85;2.92;;;15.30;99.90;;;;;;4891601;29;37315;-80
2022/09/24 10:18:34;;;;;;;7.03;1.38;;;15.30;99.90;;;;;;4870296;29;37539;-81
2022/09/24 10:21:04;;;;;;;10.43;1.60;;;15.30;99.90;;;;;;4894306;29;39842;-81
2022/09/24 10:23:41;;;;;;;14.40;2.10;;;15.30;99.90;;;;;;4900165;29;47121;-80
2022/09/24 10:26:09;;;;;;;10.48;1.50;;;15.30;99.90;;;;;;4881021;29;36241;-81
2022/09/24 10:31:40;;;;;;;10.32;2.25;;;15.40;99.90;;;;;;4896296;29;50577;-81
2022/09/24 10:34:27;;;;;;;14.68;2.22;;;15.40;99.90;;;;;;4883239;29;38637;-81
2022/09/24 10:37:00;;;;;;;9.00;2.25;;;15.40;99.90;;;;;;4885487;29;36355;-80
2022/09/24 10:39:27;;;;;;;13.75;1.55;;;15.50;99.90;;;;;;4882614;29;37800;-81
2022/09/24 10:41:55;;;;;;;10.32;2.00;;;15.50;99.90;;;;;;4901765;29;39518;-80
2022/09/24 10:44:23;;;;;;;8.55;1.27;;;15.60;99.90;;;;;;4886162;29;38256;-80
2022/09/24 10:46:56;;;;;;;8.80;1.80;;;15.70;99.90;;;;;;4908355;29;37843;-80
2022/09/24 10:49:37;;;;;;;;;;;15.80;99.90;;;;;;4889799;29;38051;-81
2022/09/24 10:52:30;;;;;;;8.65;1.40;;;15.80;99.90;;;;;;4889298;29;38741;-80
2022/09/24 10:55:06;;;;;;;8.15;1.63;;;16.00;99.90;;;;;;4888207;29;37501;-81
2022/09/24 10:57:51;;;;;;;8.85;1.70;;;16.00;99.90;;;;;;4902610;29;48634;-81
2022/09/24 11:00:37;;;;;;;13.20;1.70;;;16.00;99.90;;;;;;4904674;29;40821;-81
2022/09/24 11:03:41;;;;;;;9.35;1.55;;;16.10;99.90;;;;;;4901842;29;38837;-79
2022/09/24 11:06:32;;;;;;;13.63;1.90;;;16.20;99.90;;;;;;4896182;29;38573;-79
2022/09/24 11:09:08;;;;;;;10.63;1.30;;;16.30;99.90;;;;;;4894675;29;37435;-78
2022/09/24 11:11:54;;;;;;;6.85;1.58;;;16.40;99.90;;;;;;4884731;29;47380;-79
2022/09/24 11:14:23;;;;;;;8.25;1.50;;;16.50;99.90;;;;;;4879926;29;39453;-81
2022/09/24 11:16:57;;;;;;;9.68;1.52;;;16.70;99.90;;;;;;4900798;29;38958;-81
2022/09/24 11:19:46;;;;;;;13.25;1.77;;;16.70;99.90;;;;;;4885004;29;37910;-81
2022/09/24 11:22:31;;;;;;;9.70;1.30;;;16.70;99.90;;;;;;4900103;29;38971;-81
2022/09/24 11:25:16;;;;;;;10.93;2.03;;;16.60;99.90;;;;;;4899420;29;39168;-81
2022/09/24 11:28:15;;;;;;;13.57;1.77;;;16.60;99.90;;;;;;4907726;29;47048;-83
2022/09/24 11:30:51;;;;;;;6.38;1.27;;;16.50;99.90;;;;;;4886244;29;47344;-82
2022/09/24 11:33:46;;;;;;;8.90;1.58;;;16.60;99.90;;;;;;4899042;29;39559;-83
2022/09/24 11:36:41;;;;;;;6.35;1.10;;;16.60;99.90;;;;;;4873821;29;37793;-81
2022/09/24 11:39:25;;;;;;;8.60;1.73;;;16.50;99.90;;;;;;4893488;29;39666;-79
2022/09/24 11:42:28;;;;;;;6.45;1.60;;;16.50;99.90;;;;;;4885733;29;36759;-81
2022/09/24 11:45:16;;;;;;;5.88;1.30;;;16.50;99.90;;;;;;4855609;29;48225;-79
2022/09/24 11:48:11;;;;;;;10.15;1.30;;;16.50;99.90;;;;;;4893431;29;46954;-80
2022/09/24 11:51:00;;;;;;;7.40;1.50;;;16.50;99.90;;;;;;4884269;29;47120;-81
2022/09/24 11:54:02;;;;;;;10.88;1.88;;;16.50;99.90;;;;;;4878221;29;38523;-82
2022/09/24 11:56:46;;;;;;;8.88;1.50;;;16.40;99.90;;;;;;4895511;29;47943;-82
2022/09/24 11:59:27;;;;;;;12.35;1.55;;;16.30;99.90;;;;;;4878328;29;38182;-81
2022/09/24 12:02:18;;;;;;;8.43;1.48;;;16.30;99.90;;;;;;4879214;29;38904;-81
2022/09/24 12:05:08;;;;;;;13.93;2.42;;;16.10;99.90;;;;;;4892812;29;48917;-80
2022/09/24 12:08:03;;;;;;;7.20;1.38;;;16.00;99.90;;;;;;4883670;29;47285;-79
2022/09/24 12:10:32;;;;;;;10.43;1.45;;;16.00;99.90;;;;;;4890016;29;48866;-84
2022/09/24 12:13:13;;;;;;;10.02;1.70;;;16.00;99.90;;;;;;4894323;29;38951;-82
2022/09/24 12:15:55;;;;;;;10.45;1.70;;;16.00;99.90;;;;;;4890235;29;47164;-82
2022/09/24 12:18:42;;;;;;;9.70;2.10;;;15.90;99.90;;;;;;4905618;29;39381;-82
2022/09/24 12:21:11;;;;;;;7.07;2.17;;;15.90;99.90;;;;;;4920604;29;39525;-80
2022/09/24 12:23:43;;;;;;;7.90;1.50;;;15.90;99.90;;;;;;4925937;29;38517;-80
2022/09/24 12:26:10;;;;;;;6.45;1.48;;;15.90;99.90;;;;;;4908893;29;37063;-81
2022/09/24 12:34:49;;;;;;;11.98;1.92;;;16.00;99.90;;;;;;4906316;29;49342;-82
2022/09/24 12:37:20;;;;;;;6.50;1.45;;;16.00;99.90;;;;;;4891192;29;36130;-82
2022/09/24 12:40:02;;;;;;;6.53;1.38;;;16.10;99.90;;;;;;4882258;29;38132;-81
2022/09/24 12:42:35;;;;;;;8.20;1.30;;;16.10;99.90;;;;;;4885977;29;39622;-81
2022/09/24 12:45:03;;;;;;;8.98;1.98;;;16.20;99.90;;;;;;4881883;29;37194;-83
2022/09/24 12:47:35;;;;;;;5.68;1.27;;;16.40;99.90;;;;;;4882433;29;35903;-80
2022/09/24 12:50:04;;;;;;;9.35;1.60;;;16.40;99.90;;;;;;4880259;29;38700;-80
2022/09/24 12:52:36;;;;;;;7.82;1.88;;;16.60;99.90;;;;;;4899749;29;47138;-81
2022/09/24 12:55:04;;;;;;;9.73;1.40;;;16.60;99.90;;;;;;4885901;29;38030;-81
2022/09/24 12:57:48;;;;;;;11.70;1.48;;;16.70;99.90;;;;;;4867687;29;47161;-81
2022/09/24 13:00:36;;;;;;;7.00;1.50;;;16.70;99.90;;;;;;4854736;29;37687;-81
2022/09/24 13:03:32;;;;;;;10.45;1.10;;;16.70;99.90;;;;;;4889741;29;39455;-82
2022/09/24 13:05:59;;;;;;;8.30;1.20;;;16.80;99.90;;;;;;4851724;29;47152;-80
2022/09/24 13:08:37;;;;;;;5.63;1.23;;;17.00;99.90;;;;;;4861486;29;35739;-82
2022/09/24 13:11:24;;;;;;;7.40;1.70;;;17.00;99.90;;;;;;4903483;29;38964;-82
2022/09/24 13:14:07;;;;;;;7.93;1.35;;;17.10;99.90;;;;;;4905702;29;48854;-81